Time;durP1;ratioP1;P1;durP2;ratioP2;P2;SDS_P1;SDS_P2;PMS_P1;PMS_P2;Temp;Humidity;BMP_temperature;BMP_pressure;BME280_temperature;BME280_humidity;BME280_pressure;Samples;Min_cycle;Max_cycle;Signal;HPM_P1;HPM_P2
2022/05/17 00:01:59;;;;;;;;;;;;;;;19.89;57.60;100686.00;4954791;28;116359;-58
2022/05/17 00:04:25;;;;;;;;;;;;;;;19.85;57.53;100690.50;4941066;28;98835;-47
2022/05/17 00:06:51;;;;;;;;;;;;;;;19.82;58.04;100689.22;4939857;28;122038;-57
2022/05/17 00:09:17;;;;;;;;;;;;;;;19.81;57.66;100689.56;4943610;28;128584;-45
2022/05/17 00:11:47;;;;;;;;;;;;;;;19.78;57.96;100693.72;4960474;28;97870;-58
2022/05/17 00:14:13;;;;;;;;;;;;;;;19.77;58.05;100691.31;4959668;28;98993;-57
2022/05/17 00:16:39;;;;;;;;;;;;;;;19.76;58.37;100695.97;4960642;28;98404;-48
2022/05/17 00:19:05;;;;;;;;;;;;;;;19.75;58.22;100694.38;4949268;28;125638;-46
2022/05/17 00:21:31;;;;;;;;;;;;;;;19.74;58.32;100700.97;4960288;28;101473;-57
2022/05/17 00:23:57;;;;;;;;;;;;;;;19.72;58.76;100705.16;4958250;28;129084;-48
2022/05/17 00:26:24;;;;;;;;;;;;;;;19.70;58.90;100704.69;4959513;28;127709;-58
2022/05/17 00:28:50;;;;;;;;;;;;;;;19.69;58.88;100705.78;4950864;28;98641;-46
2022/05/17 00:31:16;;;;;;;;;;;;;;;19.66;58.87;100704.53;4959477;28;117285;-57
2022/05/17 00:33:42;;;;;;;;;;;;;;;19.65;59.10;100699.34;4952707;28;127322;-46
2022/05/17 00:36:08;;;;;;;;;;;;;;;19.65;59.48;100708.38;4959617;28;126033;-58
2022/05/17 00:38:34;;;;;;;;;;;;;;;19.65;58.59;100705.66;4952857;28;117784;-46
2022/05/17 00:41:00;;;;;;;;;;;;;;;19.63;59.53;100704.34;4955899;28;117558;-57
2022/05/17 00:46:23;;;;;;;;;;;;;;;19.58;59.57;100700.63;4959851;28;97984;-58
2022/05/17 00:48:48;;;;;;;;;;;;;;;19.55;59.68;100698.53;4941855;28;97991;-58
2022/05/17 00:51:14;;;;;;;;;;;;;;;19.51;59.64;100691.31;4954858;28;117447;-46
2022/05/17 00:53:40;;;;;;;;;;;;;;;19.47;60.10;100693.88;4954714;28;102349;-58
2022/05/17 00:56:12;;;;;;;;;;;;;;;19.46;60.43;100696.94;4938534;28;128478;-46
2022/05/17 00:58:43;;;;;;;;;;;;;;;19.45;60.55;100689.84;4942919;28;98080;-58
2022/05/17 01:01:29;;;;;;;;;;;;;;;19.41;61.26;100683.41;4957033;28;107288;-58
2022/05/17 01:04:09;;;;;;;;;;;;;;;19.39;60.60;100691.94;4940204;28;116957;-58
2022/05/17 01:06:44;;;;;;;;;;;;;;;19.37;60.50;100688.72;4954737;28;98323;-58
2022/05/17 01:09:13;;;;;;;;;;;;;;;19.34;60.62;100681.97;4946579;28;123876;-59
2022/05/17 01:11:39;;;;;;;;;;;;;;;19.27;61.76;100681.66;4943434;28;112977;-46
2022/05/17 01:16:50;;;;;;;;;;;;;;;19.05;62.32;100679.84;4937508;28;98196;-45
2022/05/17 01:19:16;;;;;;;;;;;;;;;18.99;62.22;100678.41;4951597;28;124172;-58
2022/05/17 01:21:42;;;;;;;;;;;;;;;18.97;62.54;100682.56;4959808;28;97801;-58
2022/05/17 01:24:08;;;;;;;;;;;;;;;18.95;61.98;100677.44;4958895;28;104924;-58
2022/05/17 01:26:36;;;;;;;;;;;;;;;18.95;61.99;100677.44;4959527;28;98022;-57
2022/05/17 01:29:05;;;;;;;;;;;;;;;18.96;62.11;100678.22;4959140;28;98018;-57
2022/05/17 01:31:31;;;;;;;;;;;;;;;18.91;62.01;100681.91;4959763;28;98082;-58
2022/05/17 01:33:57;;;;;;;;;;;;;;;18.87;62.12;100676.28;4930490;28;126036;-58
2022/05/17 01:36:23;;;;;;;;;;;;;;;18.85;62.50;100672.25;4939506;28;128602;-58
2022/05/17 01:38:51;;;;;;;;;;;;;;;18.84;62.21;100676.13;4950294;28;99547;-46
2022/05/17 01:41:18;;;;;;;;;;;;;;;18.80;61.82;100675.94;4942904;28;97849;-58
2022/05/17 01:43:44;;;;;;;;;;;;;;;18.78;62.77;100669.97;4943680;28;99370;-58
2022/05/17 01:46:10;;;;;;;;;;;;;;;18.74;62.81;100665.47;4942666;28;99189;-46
2022/05/17 01:48:36;;;;;;;;;;;;;;;18.73;62.54;100672.88;4948478;28;98555;-58
2022/05/17 01:51:03;;;;;;;;;;;;;;;18.73;62.44;100670.13;4962453;28;112007;-58
2022/05/17 01:53:29;;;;;;;;;;;;;;;18.74;62.54;100670.94;4956269;28;97945;-58
2022/05/17 01:55:55;;;;;;;;;;;;;;;18.74;62.77;100670.94;4942880;28;99487;-46
2022/05/17 01:58:22;;;;;;;;;;;;;;;18.73;62.75;100670.13;4941882;28;128704;-58
2022/05/17 02:00:48;;;;;;;;;;;;;;;18.73;62.46;100675.59;4943531;28;97772;-46
2022/05/17 02:03:14;;;;;;;;;;;;;;;18.73;62.66;100672.88;4956611;28;126418;-57
2022/05/17 02:05:40;;;;;;;;;;;;;;;18.73;62.79;100681.06;4961029;28;127282;-46
2022/05/17 02:08:06;;;;;;;;;;;;;;;18.74;62.75;100677.19;4961090;28;128225;-58
2022/05/17 02:10:32;;;;;;;;;;;;;;;18.72;62.96;100678.66;4958630;28;115131;-46
2022/05/17 02:12:58;;;;;;;;;;;;;;;18.72;63.13;100676.72;4942176;28;97839;-58
2022/05/17 02:15:25;;;;;;;;;;;;;;;18.72;62.85;100684.91;4942917;28;98261;-58
2022/05/17 02:17:51;;;;;;;;;;;;;;;18.72;62.93;100681.38;4942851;28;98199;-58
2022/05/17 02:20:20;;;;;;;;;;;;;;;18.73;62.97;100683.00;4942661;28;97969;-47
2022/05/17 02:22:46;;;;;;;;;;;;;;;18.70;63.11;100676.22;4942953;28;118802;-48
2022/05/17 02:25:12;;;;;;;;;;;;;;;18.71;62.90;100685.25;4960386;28;122115;-46
2022/05/17 02:27:38;;;;;;;;;;;;;;;18.72;62.90;100686.84;4962217;28;98133;-46
2022/05/17 02:30:08;;;;;;;;;;;;;;;18.71;63.04;100680.59;4942735;28;117848;-58
2022/05/17 02:32:34;;;;;;;;;;;;;;;18.72;62.99;100682.19;4954702;28;127302;-58
2022/05/17 02:35:00;;;;;;;;;;;;;;;18.72;62.90;100676.72;4961447;28;98626;-46
2022/05/17 02:37:26;;;;;;;;;;;;;;;18.72;62.87;100676.72;4961718;28;127542;-58
2022/05/17 02:39:52;;;;;;;;;;;;;;;18.71;63.17;100680.59;4945885;28;97855;-57
2022/05/17 02:42:17;;;;;;;;;;;;;;;18.71;63.04;100677.84;4950669;28;129046;-46
2022/05/17 02:44:43;;;;;;;;;;;;;;;18.68;63.09;100678.44;4960593;28;129596;-45
2022/05/17 02:47:10;;;;;;;;;;;;;;;18.67;63.39;100685.03;4960990;28;128077;-57
2022/05/17 02:49:36;;;;;;;;;;;;;;;18.66;63.24;100686.13;4962696;28;98160;-57
2022/05/17 02:52:02;;;;;;;;;;;;;;;18.65;63.23;100685.34;4952678;28;124204;-58
2022/05/17 02:54:28;;;;;;;;;;;;;;;18.65;63.16;100690.00;4944327;28;126936;-58
2022/05/17 02:56:54;;;;;;;;;;;;;;;18.64;63.34;100693.84;4941375;28;126991;-46
2022/05/17 02:59:20;;;;;;;;;;;;;;;18.63;63.39;100690.31;4941208;28;118355;-46
2022/05/17 03:01:46;;;;;;;;;;;;;;;18.63;63.27;100694.97;4940948;28;97726;-58
2022/05/17 03:04:13;;;;;;;;;;;;;;;18.63;63.43;100698.50;4941052;28;126520;-46
2022/05/17 03:06:40;;;;;;;;;;;;;;;18.64;63.50;100699.31;4960439;28;98177;-58
2022/05/17 03:09:06;;;;;;;;;;;;;;;18.61;63.49;100698.00;4954030;28;97846;-60
2022/05/17 03:11:32;;;;;;;;;;;;;;;18.61;63.42;100698.00;4942518;28;99036;-57
2022/05/17 03:13:57;;;;;;;;;;;;;;;18.60;63.46;100706.53;4940714;28;127814;-47
2022/05/17 03:16:29;;;;;;;;;;;;;;;18.59;63.71;100708.44;4940442;28;128316;-46
2022/05/17 03:18:55;;;;;;;;;;;;;;;18.57;63.69;100707.94;4942230;28;98269;-46
2022/05/17 03:21:21;;;;;;;;;;;;;;;18.56;63.67;100705.53;4946727;28;127209;-46
2022/05/17 03:23:46;;;;;;;;;;;;;;;18.53;63.64;100711.63;4940894;28;126993;-58
2022/05/17 03:26:12;;;;;;;;;;;;;;;18.52;63.31;100719.00;4940686;28;127963;-58
2022/05/17 03:28:38;;;;;;;;;;;;;;;18.51;63.30;100717.41;4947829;28;117858;-45
2022/05/17 03:31:08;;;;;;;;;;;;;;;18.49;63.99;100716.91;4960080;28;128061;-58
2022/05/17 03:33:34;;;;;;;;;;;;;;;18.48;63.90;100717.22;4953476;28;103588;-48
2022/05/17 03:36:00;;;;;;;;;;;;;;;18.46;63.99;100723.00;4951850;28;127681;-57
2022/05/17 03:38:25;;;;;;;;;;;;;;;18.45;64.00;100721.38;4953834;28;107932;-58
2022/05/17 03:40:52;;;;;;;;;;;;;;;18.44;63.86;100727.16;4942155;28;128792;-58
2022/05/17 03:43:19;;;;;;;;;;;;;;;18.42;64.03;100726.66;4960901;28;99490;-58
2022/05/17 03:45:45;;;;;;;;;;;;;;;18.39;64.13;100725.34;4952045;28;97998;-48
2022/05/17 03:48:11;;;;;;;;;;;;;;;18.37;64.23;100722.16;4941265;28;97802;-57
2022/05/17 03:50:37;;;;;;;;;;;;;;;18.35;64.52;100733.38;4940050;28;128151;-47
2022/05/17 03:53:03;;;;;;;;;;;;;;;18.35;64.19;100729.81;4950768;28;127662;-58
2022/05/17 03:55:29;;;;;;;;;;;;;;;18.31;64.29;100740.59;4940629;28;97833;-46
2022/05/17 03:57:55;;;;;;;;;;;;;;;18.30;64.76;100732.69;4943550;28;97711;-58
2022/05/17 04:00:21;;;;;;;;;;;;;;;18.29;64.69;100742.81;4959404;28;125240;-46
2022/05/17 04:02:47;;;;;;;;;;;;;;;18.28;64.52;100746.66;4956715;28;127859;-46
2022/05/17 04:05:13;;;;;;;;;;;;;;;18.24;64.28;100744.88;4958799;28;125547;-47
2022/05/17 04:07:39;;;;;;;;;;;;;;;18.18;64.38;100749.63;4960147;28;99003;-46
2022/05/17 04:10:07;;;;;;;;;;;;;;;18.13;64.17;100755.22;4959864;28;98540;-47
2022/05/17 04:12:33;;;;;;;;;;;;;;;18.08;64.01;100755.38;4950863;28;98465;-46
2022/05/17 04:14:59;;;;;;;;;;;;;;;18.01;63.92;100760.44;4939869;28;125477;-58
2022/05/17 04:17:25;;;;;;;;;;;;;;;17.94;63.55;100757.34;4940607;28;118310;-46
2022/05/17 04:19:51;;;;;;;;;;;;;;;17.88;63.38;100768.38;4939619;28;124533;-47
2022/05/17 04:22:17;;;;;;;;;;;;;;;17.83;63.01;100778.56;4946339;28;118537;-47
2022/05/17 04:24:43;;;;;;;;;;;;;;;17.73;62.82;100779.59;4960150;28;98064;-49
2022/05/17 04:27:09;;;;;;;;;;;;;;;17.66;63.10;100774.56;4957831;28;116893;-58
2022/05/17 04:29:36;;;;;;;;;;;;;;;17.62;62.61;100784.47;4940303;28;125942;-57
2022/05/17 04:32:02;;;;;;;;;;;;;;;17.55;62.62;100794.19;4945723;28;98382;-47
2022/05/17 04:34:28;;;;;;;;;;;;;;;17.46;62.51;100802.28;4961025;28;98268;-46
2022/05/17 04:36:54;;;;;;;;;;;;;;;17.36;62.67;100806.00;4958788;28;119047;-58
2022/05/17 04:39:20;;;;;;;;;;;;;;;17.28;62.64;100811.38;4949986;28;103223;-46
2022/05/17 04:41:46;;;;;;;;;;;;;;;17.21;62.78;100819.94;4956888;28;99229;-58
2022/05/17 04:44:12;;;;;;;;;;;;;;;17.15;62.89;100821.16;4938531;28;127646;-47
2022/05/17 04:46:38;;;;;;;;;;;;;;;17.04;63.17;100826.00;4937732;28;117518;-58
2022/05/17 04:49:04;;;;;;;;;;;;;;;16.97;63.50;100833.75;4936498;28;103384;-47
2022/05/17 04:51:32;;;;;;;;;;;;;;;16.87;63.79;100834.75;4936722;28;98323;-49
2022/05/17 04:53:58;;;;;;;;;;;;;;;16.85;63.87;100834.22;4947671;28;98180;-48
2022/05/17 04:56:25;;;;;;;;;;;;;;;16.81;63.67;100833.22;4937458;28;97901;-47
2022/05/17 04:58:51;;;;;;;;;;;;;;;16.72;64.21;100840.44;4936507;28;98221;-57
2022/05/17 05:01:17;;;;;;;;;;;;;;;16.61;64.40;100836.28;4936247;28;99233;-58
2022/05/17 05:03:43;;;;;;;;;;;;;;;16.52;64.41;100844.31;4942594;28;126473;-57
2022/05/17 05:06:09;;;;;;;;;;;;;;;16.46;64.74;100850.94;4936504;28;117758;-58
2022/05/17 05:08:35;;;;;;;;;;;;;;;16.40;64.54;100852.16;4936544;28;127980;-48
2022/05/17 05:11:00;;;;;;;;;;;;;;;16.35;64.54;100852.22;4939607;28;99176;-58
2022/05/17 05:13:26;;;;;;;;;;;;;;;16.31;64.65;100853.91;4936150;28;125295;-45
2022/05/17 05:15:54;;;;;;;;;;;;;;;16.31;64.31;100862.91;4938181;28;118487;-58
2022/05/17 05:18:20;;;;;;;;;;;;;;;16.25;64.41;100858.63;4954310;28;98733;-45
2022/05/17 05:20:45;;;;;;;;;;;;;;;16.21;64.14;100860.31;4939293;28;128416;-57
2022/05/17 05:23:11;;;;;;;;;;;;;;;16.18;64.73;100866.34;4946817;28;127807;-45
2022/05/17 05:25:38;;;;;;;;;;;;;;;16.12;64.71;100868.34;4938810;28;116463;-57
2022/05/17 05:28:05;;;;;;;;;;;;;;;16.07;64.55;100868.44;4941820;28;98607;-47
2022/05/17 05:30:31;;;;;;;;;;;;;;;16.07;64.55;100864.88;4938023;28;127282;-46
2022/05/17 05:32:57;;;;;;;;;;;;;;;16.07;64.55;100871.16;4940240;28;127527;-48
2022/05/17 05:35:25;;;;;;;;;;;;;;;16.10;64.64;100875.16;4939534;28;98055;-57
2022/05/17 05:37:51;;;;;;;;;;;;;;;16.15;64.69;100873.19;4939751;28;97966;-57
2022/05/17 05:40:17;;;;;;;;;;;;;;;16.26;64.25;100884.72;4939596;28;104352;-45
2022/05/17 05:42:44;;;;;;;;;;;;;;;16.40;64.48;100879.34;4939741;28;97929;-45
2022/05/17 05:45:10;;;;;;;;;;;;;;;16.52;64.49;100882.41;4939817;28;98108;-57
2022/05/17 05:47:36;;;;;;;;;;;;;;;16.63;64.28;100888.50;4941462;28;99761;-46
2022/05/17 05:50:03;;;;;;;;;;;;;;;16.72;64.20;100889.44;4939490;28;127066;-45
2022/05/17 05:52:29;;;;;;;;;;;;;;;16.77;64.52;100885.84;4942624;28;98726;-59
2022/05/17 05:54:55;;;;;;;;;;;;;;;16.81;64.32;100892.31;4940974;28;98012;-58
2022/05/17 05:57:21;;;;;;;;;;;;;;;16.61;64.99;100891.50;4939108;28;126292;-57
2022/05/17 05:59:47;;;;;;;;;;;;;;;16.66;64.83;100891.44;4938614;28;98011;-47
2022/05/17 06:02:13;;;;;;;;;;;;;;;16.60;65.38;100892.63;4942863;28;97926;-58
2022/05/17 06:04:39;;;;;;;;;;;;;;;16.66;64.89;100898.78;4942631;28;116050;-47
2022/05/17 06:07:05;;;;;;;;;;;;;;;16.73;64.78;100904.69;4938237;28;127924;-47
2022/05/17 06:09:31;;;;;;;;;;;;;;;16.79;64.57;100906.22;4938806;28;120814;-46
2022/05/17 06:11:57;;;;;;;;;;;;;;;16.80;64.38;100907.03;4937770;28;127949;-47
2022/05/17 06:14:23;;;;;;;;;;;;;;;16.85;64.04;100918.63;4946299;28;117832;-57
2022/05/17 06:16:50;;;;;;;;;;;;;;;16.90;63.82;100915.03;4938493;28;114312;-58
2022/05/17 06:19:16;;;;;;;;;;;;;;;16.89;63.73;100921.56;4937366;28;98359;-47
2022/05/17 06:21:42;;;;;;;;;;;;;;;16.95;63.71;100933.19;4939535;28;98165;-47
2022/05/17 06:24:08;;;;;;;;;;;;;;;17.04;63.32;100936.84;4939206;28;104498;-48
2022/05/17 06:26:34;;;;;;;;;;;;;;;17.15;63.26;100938.28;4943381;28;98135;-58
2022/05/17 06:29:00;;;;;;;;;;;;;;;17.24;62.93;100952.81;4941431;28;127737;-47
2022/05/17 06:31:26;;;;;;;;;;;;;;;17.28;63.00;100955.75;4938516;28;127782;-46
2022/05/17 06:33:52;;;;;;;;;;;;;;;17.32;62.67;100948.59;4939786;28;98306;-58
2022/05/17 06:36:18;;;;;;;;;;;;;;;17.36;62.60;100949.59;4949370;28;127049;-49
2022/05/17 06:38:44;;;;;;;;;;;;;;;17.36;62.75;100950.41;4937421;28;120526;-58
2022/05/17 06:41:10;;;;;;;;;;;;;;;17.40;63.01;100962.31;4937353;28;127951;-58
2022/05/17 06:43:36;;;;;;;;;;;;;;;17.38;62.90;100950.91;4939331;28;98332;-47
2022/05/17 06:46:02;;;;;;;;;;;;;;;17.38;62.62;100948.19;4945005;28;105589;-58
2022/05/17 06:48:29;;;;;;;;;;;;;;;17.37;62.84;100957.50;4939736;28;125730;-47
2022/05/17 06:51:00;;;;;;;;;;;;;;;17.40;62.82;100964.22;4938453;28;106957;-58
2022/05/17 06:53:26;;;;;;;;;;;;;;;17.47;62.33;100967.38;4940433;28;115022;-47
2022/05/17 06:55:52;;;;;;;;;;;;;;;17.61;62.21;100962.75;4940221;28;127405;-45
2022/05/17 06:58:18;;;;;;;;;;;;;;;17.76;61.98;100961.66;4944403;28;126095;-47
2022/05/17 07:00:43;;;;;;;;;;;;;;;17.87;62.02;100973.97;4938361;28;126533;-57
2022/05/17 07:03:09;;;;;;;;;;;;;;;17.91;61.84;100971.44;4937931;28;117426;-46
2022/05/17 07:05:35;;;;;;;;;;;;;;;17.93;61.65;100980.16;4939274;28;98817;-46
2022/05/17 07:08:01;;;;;;;;;;;;;;;17.95;61.76;100977.91;4944014;28;129568;-56
2022/05/17 07:13:13;;;;;;;;;;;;;;;17.87;61.33;100987.59;4935925;28;97925;-59
2022/05/17 07:15:47;;;;;;;;;;;;;;;17.88;61.23;101000.16;4938236;28;98219;-48
2022/05/17 07:18:14;;;;;;;;;;;;;;;17.91;61.09;101002.25;4947587;28;98608;-56
2022/05/17 07:20:40;;;;;;;;;;;;;;;17.89;61.42;100998.22;4939608;28;98230;-45
2022/05/17 07:23:06;;;;;;;;;;;;;;;17.85;61.59;101002.69;4946937;28;97901;-57
2022/05/17 07:25:33;;;;;;;;;;;;;;;17.84;61.36;100999.16;4942962;28;127899;-47
2022/05/17 07:27:59;;;;;;;;;;;;;;;17.89;61.42;100987.31;4939739;28;99009;-46
2022/05/17 07:30:25;;;;;;;;;;;;;;;18.04;60.88;101000.66;4940405;28;98149;-58
2022/05/17 07:32:51;;;;;;;;;;;;;;;18.14;60.81;100997.69;4939281;28;97919;-48
2022/05/17 07:35:17;;;;;;;;;;;;;;;18.12;60.42;100990.94;4937776;28;98749;-58
2022/05/17 07:37:43;;;;;;;;;;;;;;;18.11;60.77;100998.28;4936678;28;128218;-59
2022/05/17 07:40:12;;;;;;;;;;;;;;;18.14;60.58;101005.06;4942074;28;98358;-47
2022/05/17 07:42:39;;;;;;;;;;;;;;;18.20;60.48;101019.44;4936266;28;97828;-48
2022/05/17 07:45:06;;;;;;;;;;;;;;;18.29;60.32;101031.22;4937895;28;98381;-58
2022/05/17 07:47:33;;;;;;;;;;;;;;;18.32;60.52;101041.53;4937048;28;126767;-47
2022/05/17 07:49:59;;;;;;;;;;;;;;;18.31;60.89;101048.09;4942937;28;98729;-58
2022/05/17 07:52:24;;;;;;;;;;;;;;;18.30;61.01;101051.94;4937393;28;116895;-47
2022/05/17 07:54:50;;;;;;;;;;;;;;;18.26;61.26;101057.19;4949570;28;128153;-59
2022/05/17 07:57:16;;;;;;;;;;;;;;;18.19;61.33;101056.78;4936545;28;127722;-48
2022/05/17 07:59:43;;;;;;;;;;;;;;;18.21;61.76;101060.03;4942297;28;127647;-58
2022/05/17 08:02:09;;;;;;;;;;;;;;;18.23;61.60;101071.44;4937446;28;98120;-59
2022/05/17 08:04:36;;;;;;;;;;;;;;;18.24;61.67;101064.09;4937234;28;98208;-48
2022/05/17 08:07:02;;;;;;;;;;;;;;;18.27;61.76;101066.19;4936934;28;97900;-59
2022/05/17 08:09:28;;;;;;;;;;;;;;;18.31;61.71;101065.28;4943953;28;98110;-47
2022/05/17 08:11:54;;;;;;;;;;;;;;;18.38;61.50;101064.84;4937367;28;111379;-47
2022/05/17 08:14:20;;;;;;;;;;;;;;;18.55;61.16;101059.59;4937957;28;129132;-59
2022/05/17 08:16:46;;;;;;;;;;;;;;;18.66;60.91;101065.63;4937171;28;123007;-58
2022/05/17 08:19:12;;;;;;;;;;;;;;;18.62;61.05;101064.63;4942591;28;128457;-48
2022/05/17 08:21:38;;;;;;;;;;;;;;;18.58;61.02;101067.16;4943161;28;97932;-57
2022/05/17 08:24:04;;;;;;;;;;;;;;;18.64;60.93;101076.84;4941533;28;128166;-46
2022/05/17 08:29:15;;;;;;;;;;;;;;;18.82;60.50;101077.88;4944226;28;97923;-45
2022/05/17 08:31:42;;;;;;;;;;;;;;;18.81;60.60;101081.69;4937310;28;98159;-57
2022/05/17 08:34:08;;;;;;;;;;;;;;;18.83;60.73;101079.47;4937849;28;118817;-45
2022/05/17 08:36:34;;;;;;;;;;;;;;;18.87;60.58;101085.94;4936365;28;98895;-58
2022/05/17 08:39:00;;;;;;;;;;;;;;;18.87;60.62;101088.66;4943126;28;115751;-58
2022/05/17 08:41:27;;;;;;;;;;;;;;;18.87;60.61;101090.59;4936490;28;117395;-57
2022/05/17 08:43:55;;;;;;;;;;;;;;;18.87;60.52;101101.50;4956321;28;98768;-57
2022/05/17 08:46:31;;;;;;;;;;;;;;;18.89;60.46;101094.59;4935046;28;99035;-46
2022/05/17 08:49:01;;;;;;;;;;;;;;;18.90;60.53;101098.16;4938456;28;98477;-50
2022/05/17 08:51:51;;;;;;;;;;;;;;;18.94;60.26;101096.41;4955453;28;98275;-59
2022/05/17 08:54:21;;;;;;;;;;;;;;;18.93;60.42;101104.94;4942878;28;98300;-48
2022/05/17 08:56:54;;;;;;;;;;;;;;;18.97;59.97;101097.72;4938342;28;99725;-47
2022/05/17 08:59:22;;;;;;;;;;;;;;;19.08;59.96;101096.38;4939102;28;124527;-58
2022/05/17 09:02:12;;;;;;;;;;;;;;;19.27;59.63;101096.22;4939985;28;97868;-58
2022/05/17 09:04:51;;;;;;;;;;;;;;;19.54;58.98;101104.28;4919073;28;99402;-58
2022/05/17 09:07:23;;;;;;;;;;;;;;;19.70;58.93;101112.94;4938758;28;98475;-58
2022/05/17 09:10:02;;;;;;;;;;;;;;;19.72;58.97;101112.59;4939295;28;99863;-58
2022/05/17 09:12:41;;;;;;;;;;;;;;;19.73;58.83;101115.03;4938962;28;97933;-46
2022/05/17 09:15:08;;;;;;;;;;;;;;;19.71;59.04;101117.25;4962686;28;107033;-58
2022/05/17 09:17:34;;;;;;;;;;;;;;;19.64;58.98;101125.09;4953673;28;106193;-47
2022/05/17 09:20:00;;;;;;;;;;;;;;;19.57;59.11;101130.16;4940773;28;98817;-58
2022/05/17 09:22:26;;;;;;;;;;;;;;;19.41;59.31;101128.94;4938441;28;123298;-58
2022/05/17 09:24:58;;;;;;;;;;;;;;;19.32;59.31;101135.16;4938664;28;129162;-57
2022/05/17 09:27:35;;;;;;;;;;;;;;;19.32;59.22;101134.34;4938401;28;98250;-58
2022/05/17 09:30:11;;;;;;;;;;;;;;;19.33;59.04;101141.41;4940577;28;99041;-46
2022/05/17 09:32:44;;;;;;;;;;;;;;;19.30;59.03;101142.84;4946472;28;98091;-58
2022/05/17 09:35:15;;;;;;;;;;;;;;;19.30;58.98;101139.31;4937738;28;98410;-58
2022/05/17 09:37:43;;;;;;;;;;;;;;;19.32;58.81;101137.88;4940890;28;98338;-46
2022/05/17 09:40:12;;;;;;;;;;;;;;;19.33;58.60;101144.94;4941639;28;98706;-46
2022/05/17 09:42:53;;;;;;;;;;;;;;;19.24;58.96;101148.75;4938301;28;98662;-46
2022/05/17 09:45:20;;;;;;;;;;;;;;;19.09;59.13;101149.91;4937556;28;99075;-57
2022/05/17 09:48:02;;;;;;;;;;;;;;;19.05;59.52;101152.44;4946391;28;98632;-57
2022/05/17 09:53:18;;;;;;;;;;;;;;;18.97;59.65;101149.63;4941807;28;98770;-57
2022/05/17 09:55:48;;;;;;;;;;;;;;;18.93;59.36;101156.81;4939609;28;98854;-57
2022/05/17 09:58:33;;;;;;;;;;;;;;;18.92;59.72;101157.94;4944286;28;104664;-58
2022/05/17 10:01:00;;;;;;;;;;;;;;;18.88;60.00;101161.28;4943796;28;97754;-46
2022/05/17 10:03:29;;;;;;;;;;;;;;;18.84;59.67;101165.75;4943480;28;98073;-58
2022/05/17 10:06:07;;;;;;;;;;;;;;;18.86;59.68;101166.25;4951636;28;98182;-46
2022/05/17 10:08:55;;;;;;;;;;;;;;;18.81;59.88;101171.81;4944946;28;98767;-47
2022/05/17 10:11:23;;;;;;;;;;;;;;;18.76;59.86;101163.72;4937946;28;98351;-46
2022/05/17 10:14:18;;;;;;;;;;;;;;;18.72;60.22;101167.38;4936723;28;98097;-46
2022/05/17 10:16:45;;;;;;;;;;;;;;;18.72;60.03;101176.38;4936401;28;98405;-58
2022/05/17 10:19:19;;;;;;;;;;;;;;;18.72;60.18;101175.56;4950668;28;98021;-45
2022/05/17 10:22:04;;;;;;;;;;;;;;;18.75;60.20;101172.25;4942449;28;126784;-57
2022/05/17 10:24:47;;;;;;;;;;;;;;;18.80;60.08;101175.66;4935772;28;122680;-46
2022/05/17 10:27:34;;;;;;;;;;;;;;;18.83;59.93;101177.78;4942138;28;98870;-46
2022/05/17 10:30:07;;;;;;;;;;;;;;;18.85;60.11;101170.09;4936767;28;98867;-45
2022/05/17 10:32:57;;;;;;;;;;;;;;;18.89;59.82;101173.00;4943345;28;98091;-58
2022/05/17 10:35:33;;;;;;;;;;;;;;;19.00;59.77;101170.88;4952911;28;98058;-57
2022/05/17 10:38:07;;;;;;;;;;;;;;;19.13;59.62;101175.47;4935341;28;126299;-46
2022/05/17 10:40:35;;;;;;;;;;;;;;;19.26;59.21;101174.66;4935219;28;120310;-58
2022/05/17 10:43:02;;;;;;;;;;;;;;;19.41;59.14;101176.19;4939026;28;98453;-46
2022/05/17 10:45:33;;;;;;;;;;;;;;;19.63;58.80;101174.66;4936774;28;98385;-46
2022/05/17 10:48:18;;;;;;;;;;;;;;;19.93;58.12;101167.59;4937096;28;98392;-58
2022/05/17 10:51:15;;;;;;;;;;;;;;;20.15;57.66;101166.72;4938284;28;98432;-57
2022/05/17 10:53:43;;;;;;;;;;;;;;;20.38;57.22;101172.94;4963862;28;127481;-46
2022/05/17 10:56:33;;;;;;;;;;;;;;;20.75;56.47;101172.47;4938007;28;97906;-58
2022/05/17 10:59:02;;;;;;;;;;;;;;;21.01;56.38;101167.00;4943460;28;98274;-58
2022/05/17 11:01:54;;;;;;;;;;;;;;;21.27;55.95;101164.28;4938147;28;99778;-55
2022/05/17 11:04:35;;;;;;;;;;;;;;;21.57;55.56;101167.19;4935014;28;98298;-46
2022/05/17 11:07:20;;;;;;;;;;;;;;;21.76;55.32;101175.88;4938944;28;97959;-45
2022/05/17 11:09:51;;;;;;;;;;;;;;;21.81;54.12;101166.66;4937212;28;98349;-58
2022/05/17 11:12:18;;;;;;;;;;;;;;;21.90;54.04;101181.19;4943458;28;98556;-46
2022/05/17 11:14:49;;;;;;;;;;;;;;;21.99;53.87;101178.44;4938430;28;98438;-58
2022/05/17 11:17:44;;;;;;;;;;;;;;;22.01;53.85;101181.66;4951050;28;117787;-46
2022/05/17 11:20:24;;;;;;;;;;;;;;;21.90;54.00;101180.41;4936999;28;98548;-49
2022/05/17 11:22:53;;;;;;;;;;;;;;;21.64;54.13;101180.44;4955054;28;98921;-57
2022/05/17 11:25:53;;;;;;;;;;;;;;;21.43;54.56;101180.28;4938625;28;99608;-45
2022/05/17 11:28:33;;;;;;;;;;;;;;;21.27;54.84;101180.75;4935873;28;97922;-45
2022/05/17 11:31:11;;;;;;;;;;;;;;;21.16;55.07;101176.72;4937360;28;98386;-58
2022/05/17 11:33:39;;;;;;;;;;;;;;;21.06;54.90;101174.28;4934770;28;98997;-47
2022/05/17 11:36:11;;;;;;;;;;;;;;;21.01;55.23;101171.69;4938958;28;98182;-56
2022/05/17 11:38:37;;;;;;;;;;;;;;;21.03;54.90;101163.97;4937083;28;98310;-49
2022/05/17 11:41:07;;;;;;;;;;;;;;;21.10;54.72;101169.75;4935984;28;98974;-57
2022/05/17 11:43:50;;;;;;;;;;;;;;;21.21;54.58;101159.28;4937037;28;100931;-57
2022/05/17 11:46:28;;;;;;;;;;;;;;;21.45;54.03;101161.56;4921398;28;98288;-57
2022/05/17 11:49:00;;;;;;;;;;;;;;;21.73;53.45;101162.00;4939059;28;97868;-58
2022/05/17 11:51:31;;;;;;;;;;;;;;;21.99;52.93;101165.50;4936394;28;128093;-58
2022/05/17 11:53:57;;;;;;;;;;;;;;;22.29;52.33;101163.66;4958118;28;121580;-48
2022/05/17 11:56:26;;;;;;;;;;;;;;;22.60;51.88;101168.03;4939870;28;98306;-46
2022/05/17 11:58:56;;;;;;;;;;;;;;;22.95;51.09;101170.56;4937355;28;98196;-46
2022/05/17 12:01:29;;;;;;;;;;;;;;;23.54;50.30;101170.44;4936638;28;97862;-57
2022/05/17 12:03:57;;;;;;;;;;;;;;;24.73;48.62;101167.78;4935767;28;99138;-46
2022/05/17 12:06:30;;;;;;;;;;;;;;;25.56;47.70;101169.06;4939742;28;98298;-58
2022/05/17 12:08:56;;;;;;;;;;;;;;;25.48;47.34;101164.50;4936162;28;97676;-58
2022/05/17 12:11:43;;;;;;;;;;;;;;;25.31;47.54;101182.16;4935119;28;128648;-47
2022/05/17 12:14:26;;;;;;;;;;;;;;;25.22;47.15;101176.78;4935527;28;127546;-58
2022/05/17 12:16:57;;;;;;;;;;;;;;;25.19;46.83;101169.22;4937971;28;98600;-58
2022/05/17 12:19:48;;;;;;;;;;;;;;;25.36;46.83;101165.34;4934403;28;116249;-57
2022/05/17 12:22:19;;;;;;;;;;;;;;;25.29;46.83;101172.63;4936280;28;98551;-47
2022/05/17 12:25:04;;;;;;;;;;;;;;;25.09;46.91;101164.19;4933188;28;126576;-45
2022/05/17 12:27:31;;;;;;;;;;;;;;;25.09;46.72;101164.19;4936101;28;98526;-47
2022/05/17 12:33:04;;;;;;;;;;;;;;;26.23;44.75;101160.97;4937757;28;98124;-58
2022/05/17 12:35:30;;;;;;;;;;;;;;;26.09;44.50;101166.13;4955623;28;99131;-57
2022/05/17 12:37:56;;;;;;;;;;;;;;;26.49;44.03;101165.16;4938624;28;97964;-46
2022/05/17 12:43:31;;;;;;;;;;;;;;;26.74;43.69;101163.00;4940813;28;98456;-46
2022/05/17 12:46:14;;;;;;;;;;;;;;;26.50;43.48;101156.53;4948080;28;98293;-58
2022/05/17 12:48:40;;;;;;;;;;;;;;;26.06;44.11;101164.91;4942398;28;98017;-47
2022/05/17 12:51:06;;;;;;;;;;;;;;;25.66;44.18;101165.81;4952086;28;122615;-57
2022/05/17 12:53:42;;;;;;;;;;;;;;;25.23;44.83;101163.81;4938696;28;98466;-58
2022/05/17 12:56:16;;;;;;;;;;;;;;;24.91;45.23;101163.59;4942162;28;98628;-46
2022/05/17 12:58:56;;;;;;;;;;;;;;;24.74;45.66;101166.63;4936236;28;98189;-57
2022/05/17 13:01:26;;;;;;;;;;;;;;;24.69;45.63;101164.91;4935735;28;97830;-47
2022/05/17 13:03:56;;;;;;;;;;;;;;;24.78;45.61;101164.78;4936578;28;99239;-46